createdAt,value
2022-12-14T00:00:24.019Z,6.2
2022-12-14T00:06:44.010Z,6.2
2022-12-14T00:13:06.999Z,38.2
2022-12-14T00:19:26.940Z,38.2
2022-12-14T00:25:50.141Z,9
2022-12-14T00:32:09.979Z,9
2022-12-14T00:38:33.098Z,8.6
2022-12-14T00:44:52.896Z,8.6
2022-12-14T00:51:15.956Z,15.2
2022-12-14T00:57:36.009Z,15.2
2022-12-14T01:03:58.947Z,8.6
2022-12-14T01:10:18.972Z,8.6
2022-12-14T01:16:42.033Z,6.6
2022-12-14T01:23:01.920Z,6.6
2022-12-14T01:29:25.070Z,18.1
2022-12-14T01:35:44.964Z,18.1
2022-12-14T01:42:07.939Z,6.8
2022-12-14T01:48:27.952Z,6.8
2022-12-14T01:54:51.215Z,6
2022-12-14T02:01:10.973Z,6
2022-12-14T02:07:34.000Z,7
2022-12-14T02:13:53.898Z,7
2022-12-14T02:20:17.115Z,12.4
2022-12-14T02:26:36.920Z,12.4
2022-12-14T02:32:59.975Z,16.3
2022-12-14T02:39:19.900Z,16.3
2022-12-14T02:45:42.959Z,5.9
2022-12-14T02:52:02.925Z,5.9
2022-12-14T02:58:25.942Z,5.4
2022-12-14T03:04:45.946Z,5.4
2022-12-14T03:11:10.532Z,10.7
2022-12-14T03:17:30.900Z,10.7
2022-12-14T03:23:53.907Z,8.5
2022-12-14T03:30:13.929Z,8.5
2022-12-14T03:36:36.926Z,2.9
2022-12-14T03:42:56.883Z,2.9
2022-12-14T03:49:19.933Z,4.5
2022-12-14T03:55:39.958Z,4.5
2022-12-14T04:02:03.092Z,1.6
2022-12-14T04:18:09.714Z,5.1
2022-12-14T04:24:29.954Z,5.1
2022-12-14T04:30:52.945Z,7.7
2022-12-14T04:37:12.970Z,7.7
2022-12-14T04:43:36.019Z,7.7
2022-12-14T04:49:55.921Z,7.7
2022-12-14T04:56:19.159Z,1.8
2022-12-14T05:02:39.194Z,1.8
2022-12-14T05:09:01.915Z,3.3
2022-12-14T05:15:21.985Z,3.3
2022-12-14T05:21:44.975Z,9.8
2022-12-14T05:28:04.909Z,9.8
2022-12-14T05:34:27.950Z,8.6
2022-12-14T05:40:47.891Z,8.6
2022-12-14T05:47:10.959Z,7.2
2022-12-14T05:53:31.055Z,7.2
2022-12-14T05:59:53.927Z,1
2022-12-14T06:06:14.007Z,1
2022-12-14T06:12:36.940Z,2.5
2022-12-14T06:18:57.055Z,2.5
2022-12-14T06:25:19.915Z,6.1
2022-12-14T06:31:40.051Z,6.1
2022-12-14T06:38:02.928Z,3.7
2022-12-14T06:44:22.894Z,3.7
2022-12-14T06:50:46.042Z,3.7
2022-12-14T06:57:06.004Z,3.7
2022-12-14T07:03:29.195Z,6
2022-12-14T07:09:48.942Z,6
2022-12-14T07:16:11.993Z,3.7
2022-12-14T07:22:31.965Z,3.7
2022-12-14T07:28:55.064Z,11.1
2022-12-14T07:35:16.814Z,11.1
2022-12-14T07:41:37.960Z,12
2022-12-14T07:47:57.933Z,12
2022-12-14T07:54:21.057Z,40.7
2022-12-14T08:00:41.060Z,40.7
2022-12-14T08:07:04.323Z,11.6
2022-12-14T08:13:23.895Z,11.6
2022-12-14T08:19:46.949Z,15
2022-12-14T08:26:07.018Z,15
2022-12-14T08:32:34.217Z,9
2022-12-14T08:38:50.056Z,9
2022-12-14T08:45:12.965Z,7.6
2022-12-14T08:51:33.358Z,7.6
2022-12-14T09:14:20.869Z,15.3
2022-12-14T09:20:40.949Z,15.3
2022-12-14T09:27:04.128Z,11.6
2022-12-14T09:33:24.083Z,11.6
2022-12-14T09:39:47.160Z,7.1
2022-12-14T09:46:07.153Z,7.1
2022-12-14T09:52:30.150Z,15.8
2022-12-14T09:58:50.027Z,15.8
2022-12-14T10:05:12.945Z,12.7
2022-12-14T10:11:32.934Z,12.7
2022-12-14T10:17:55.960Z,8.5
2022-12-14T10:24:15.915Z,8.5
2022-12-14T10:30:38.983Z,14.6
2022-12-14T10:36:59.039Z,14.6
2022-12-14T10:43:21.927Z,6.2
2022-12-14T10:49:42.109Z,6.2
2022-12-14T10:56:05.185Z,15.9
2022-12-14T11:02:25.467Z,15.9
2022-12-14T11:08:48.747Z,8.3
2022-12-14T11:15:08.188Z,8.3
2022-12-14T11:21:30.938Z,10.6
2022-12-14T11:27:50.938Z,10.6
2022-12-14T11:34:17.780Z,16.8
2022-12-14T11:40:34.094Z,16.8
2022-12-14T11:46:57.109Z,12.1
2022-12-14T11:53:16.986Z,12.1
2022-12-14T11:59:39.934Z,7.8
2022-12-14T12:06:00.206Z,7.8
2022-12-14T12:12:22.929Z,6.3
2022-12-14T12:18:46.122Z,6.3
2022-12-14T12:25:25.273Z,11.2
2022-12-14T12:31:26.175Z,11.2
2022-12-14T12:37:49.041Z,6.3
2022-12-14T12:44:09.103Z,6.3
2022-12-14T12:50:31.958Z,16.5
2022-12-14T12:56:52.032Z,16.5
2022-12-14T13:03:15.233Z,10.1
2022-12-14T13:09:34.924Z,10.1
2022-12-14T13:15:57.963Z,7
2022-12-14T13:22:18.066Z,7
2022-12-14T13:28:41.048Z,6
2022-12-14T13:35:00.963Z,6
2022-12-14T13:41:23.924Z,5.5
2022-12-14T13:47:44.078Z,5.5
2022-12-14T13:54:06.939Z,8.9
2022-12-14T14:00:27.037Z,8.9
2022-12-14T14:06:49.927Z,3.6
2022-12-14T14:13:10.006Z,3.6
2022-12-14T14:37:21.870Z,21.3
2022-12-14T14:43:44.952Z,21.3
2022-12-14T14:50:04.912Z,21.3
2022-12-14T14:56:27.942Z,4.5
2022-12-14T15:02:47.979Z,4.5
2022-12-14T15:09:10.916Z,6
2022-12-14T15:15:31.167Z,6
2022-12-14T15:21:53.956Z,4.9
2022-12-14T15:28:13.924Z,4.9
2022-12-14T15:34:37.954Z,24.2
2022-12-14T15:40:57.900Z,24.2
2022-12-14T15:47:20.975Z,9.9
2022-12-14T15:53:41.100Z,9.9
2022-12-14T16:00:03.913Z,7.8
2022-12-14T16:06:24.016Z,7.8
2022-12-14T16:12:47.326Z,10.6
2022-12-14T16:19:25.611Z,10.6
2022-12-14T16:25:30.087Z,3.8
2022-12-14T16:31:50.230Z,3.8
2022-12-14T16:38:12.921Z,14.1
2022-12-14T16:44:33.008Z,14.1
2022-12-14T16:50:59.176Z,10.5
2022-12-14T16:57:16.047Z,10.5
2022-12-14T17:03:39.455Z,7.9
2022-12-14T17:09:59.024Z,7.9
2022-12-14T17:16:21.947Z,6.1
2022-12-14T17:22:42.060Z,6.1
2022-12-14T17:29:05.197Z,7.8
2022-12-14T17:35:25.087Z,7.8
2022-12-14T17:41:47.991Z,10.5
2022-12-14T17:48:08.065Z,10.5
2022-12-14T17:54:30.918Z,29.3
2022-12-14T18:00:51.228Z,29.3
2022-12-14T18:07:13.943Z,7.4
2022-12-14T18:13:34.204Z,7.4
2022-12-14T18:19:57.026Z,7.4
2022-12-14T18:26:16.980Z,7.4
2022-12-14T18:32:40.005Z,11.5
2022-12-14T18:39:00.122Z,11.5
2022-12-14T18:45:23.340Z,7.7
2022-12-14T18:51:42.974Z,7.7
2022-12-14T18:58:06.006Z,5.9
2022-12-14T19:04:25.932Z,5.9
2022-12-14T19:10:49.114Z,14.3
2022-12-14T19:34:12.443Z,41.5
2022-12-14T19:40:31.883Z,41.5
2022-12-14T19:46:55.008Z,41.5
2022-12-14T19:53:17.378Z,41.5
2022-12-14T19:59:37.887Z,7.2
2022-12-14T20:05:57.899Z,7.2
2022-12-14T20:12:20.945Z,18.4
2022-12-14T20:18:40.977Z,18.4
2022-12-14T20:25:03.891Z,14.8
2022-12-14T20:31:24.053Z,14.8
2022-12-14T20:37:47.109Z,14.2
2022-12-14T20:44:06.919Z,14.2
2022-12-14T20:50:30.011Z,15.2
2022-12-14T20:56:49.978Z,15.2
2022-12-14T21:03:13.042Z,19.9
2022-12-14T21:09:32.913Z,19.9
2022-12-14T21:15:56.025Z,18.1
2022-12-14T21:22:15.959Z,18.1
2022-12-14T21:28:39.037Z,21.2
2022-12-14T21:34:58.990Z,21.2
2022-12-14T21:41:21.901Z,15.9
2022-12-14T21:47:41.998Z,15.9
2022-12-14T21:54:04.967Z,13.4
2022-12-14T22:00:24.878Z,13.4
2022-12-14T22:06:48.002Z,15.8
2022-12-14T22:13:07.888Z,15.8
2022-12-14T22:19:30.930Z,20.2
2022-12-14T22:25:51.024Z,20.2
2022-12-14T22:32:14.065Z,18.7
2022-12-14T22:38:33.959Z,18.7
2022-12-14T22:44:56.961Z,18.7
2022-12-14T22:51:16.894Z,18.7
2022-12-14T22:57:39.953Z,10.9
2022-12-14T23:20:45.972Z,42.8
2022-12-14T23:27:09.534Z,42.8
2022-12-14T23:33:29.149Z,42.8
2022-12-14T23:39:49.184Z,42.8
2022-12-14T23:46:12.132Z,16.6
2022-12-14T23:52:32.107Z,16.6
2022-12-14T23:58:58.341Z,5
